createdAt,value
2019-05-30T05:11:58.678Z,11.28
2019-05-30T05:21:58.397Z,11.71
2019-05-30T05:31:58.307Z,12.16
2019-05-30T05:41:58.389Z,12.41
2019-05-30T05:51:58.447Z,12.83
2019-05-30T06:01:58.523Z,13.13
2019-05-30T06:11:58.492Z,13.50
2019-05-30T06:21:58.867Z,13.83
2019-05-30T06:31:58.745Z,14.09
2019-05-30T06:41:58.713Z,14.48
2019-05-30T06:51:58.777Z,14.80
2019-05-30T07:01:58.543Z,14.96
2019-05-30T07:11:58.605Z,15.71
2019-05-30T07:21:58.562Z,15.93
2019-05-30T07:31:58.650Z,15.90
2019-05-30T07:42:06.206Z,15.62
2019-05-30T07:51:58.268Z,16.09
2019-05-30T08:01:58.964Z,15.82
2019-05-30T08:11:59.026Z,16.13
2019-05-30T08:21:59.311Z,16.15
2019-05-30T08:32:01.026Z,16.04
2019-05-30T08:41:59.143Z,16.01
2019-05-30T08:51:59.085Z,16.18
2019-05-30T09:01:59.286Z,16.16
2019-05-30T09:11:59.661Z,16.50
2019-05-30T09:21:59.030Z,16.70
2019-05-30T09:31:59.167Z,16.62
2019-05-30T09:41:59.155Z,16.81
2019-05-30T09:51:59.211Z,17.34
2019-05-30T10:01:59.073Z,17.93
2019-05-30T10:11:59.361Z,17.97
2019-05-30T10:21:59.223Z,17.56
2019-05-30T10:31:59.299Z,17.37
2019-05-30T10:41:59.156Z,17.36
2019-05-30T10:51:59.541Z,17.32
2019-05-30T11:01:58.985Z,17.31
2019-05-30T11:11:59.053Z,17.14
2019-05-30T11:21:59.239Z,17.31
2019-05-30T11:31:59.149Z,17.35
2019-05-30T11:41:59.516Z,17.43
2019-05-30T11:51:59.984Z,17.34
2019-05-30T12:02:00.455Z,17.40
2019-05-30T12:11:59.288Z,18.04
2019-05-30T12:21:59.887Z,18.02
2019-05-30T12:32:00.663Z,17.80
2019-05-30T12:41:59.098Z,17.83
2019-05-30T12:52:00.500Z,18.32
2019-05-30T13:01:59.107Z,18.03
2019-05-30T13:12:00.237Z,17.69
2019-05-30T13:21:59.353Z,17.78
2019-05-30T13:32:02.543Z,17.72
2019-05-30T13:41:59.574Z,17.83
2019-05-30T13:52:00.757Z,18.02
2019-05-30T14:01:59.819Z,18.17
2019-05-30T14:12:00.332Z,18.18
2019-05-30T14:22:01.069Z,17.98
2019-05-30T14:31:59.030Z,17.97
2019-05-30T14:41:59.223Z,18.04
2019-05-30T14:51:59.600Z,18.09
2019-05-30T15:01:58.869Z,18.12
2019-05-30T15:11:58.285Z,17.91
2019-05-30T15:21:58.875Z,17.90
2019-05-30T15:31:58.543Z,17.97
2019-05-30T15:41:58.715Z,17.99
2019-05-30T15:51:58.467Z,18.03
2019-05-30T16:01:58.238Z,18.02
2019-05-30T16:11:58.473Z,18.06
2019-05-30T16:21:58.369Z,18.05
2019-05-30T16:31:58.375Z,18.01
2019-05-30T16:41:58.410Z,17.81
2019-05-30T16:51:58.381Z,17.85
2019-05-30T17:01:58.701Z,17.78
2019-05-30T17:11:59.447Z,17.77
2019-05-30T17:21:58.595Z,17.75
2019-05-30T17:31:58.883Z,17.86
2019-05-30T17:41:58.747Z,17.75
2019-05-30T17:51:58.620Z,17.76
2019-05-30T18:02:00.884Z,17.74
2019-05-30T18:11:58.743Z,17.67
2019-05-30T18:21:58.699Z,17.64
2019-05-30T18:31:59.289Z,17.58
2019-05-30T18:41:59.055Z,17.47
2019-05-30T18:51:58.727Z,17.41
2019-05-30T19:01:58.691Z,17.31
